Time;durP1;ratioP1;P1;durP2;ratioP2;P2;SDS_P1;SDS_P2;PMS_P1;PMS_P2;Temp;Humidity;BMP_temperature;BMP_pressure;BME280_temperature;BME280_humidity;BME280_pressure;Samples;Min_cycle;Max_cycle;Signal;HPM_P1;HPM_P2
2022/04/06 00:00:48;;;;;;;71.03;49.05;;;15.50;55.10;;;;;;4968626;28;95742;-37
2022/04/06 00:03:14;;;;;;;73.03;49.45;;;15.50;55.00;;;;;;4976349;28;95054;-36
2022/04/06 00:05:41;;;;;;;74.32;49.42;;;15.50;55.00;;;;;;4977934;28;94692;-38
2022/04/06 00:08:07;;;;;;;72.25;49.42;;;15.50;55.00;;;;;;4977730;28;94764;-41
2022/04/06 00:10:32;;;;;;;71.75;49.35;;;15.50;55.00;;;;;;4971315;28;94684;-38
2022/04/06 00:13:01;;;;;;;74.05;49.50;;;15.50;55.00;;;;;;4977708;28;94941;-38
2022/04/06 00:15:27;;;;;;;72.13;49.47;;;15.50;55.00;;;;;;4975615;28;98922;-37
2022/04/06 00:17:53;;;;;;;71.30;49.22;;;15.50;55.00;;;;;;4979809;28;95204;-39
2022/04/06 00:20:19;;;;;;;72.93;49.33;;;15.40;55.00;;;;;;4970405;28;96167;-36
2022/04/06 00:22:45;;;;;;;71.60;49.38;;;15.50;55.00;;;;;;4976624;28;95611;-40
2022/04/06 00:25:11;;;;;;;72.82;49.55;;;15.50;55.00;;;;;;4972477;28;94553;-35
2022/04/06 00:27:37;;;;;;;73.15;49.55;;;15.50;55.00;;;;;;4977105;28;94600;-38
2022/04/06 00:30:04;;;;;;;71.78;49.38;;;15.50;55.00;;;;;;4970912;28;94722;-36
2022/04/06 00:32:30;;;;;;;71.60;49.70;;;15.40;55.00;;;;;;4974751;28;94719;-38
2022/04/06 00:37:40;;;;;;;71.45;49.42;;;15.50;55.00;;;;;;4975860;28;94249;-41
2022/04/06 00:40:08;;;;;;;71.78;49.38;;;15.50;55.00;;;;;;4974161;28;95734;-40
2022/04/06 00:42:34;;;;;;;72.22;49.58;;;15.50;55.00;;;;;;4968095;28;94724;-37
2022/04/06 00:45:00;;;;;;;70.55;49.13;;;15.50;54.90;;;;;;4971596;28;95799;-38
2022/04/06 00:47:26;;;;;;;71.35;49.22;;;15.50;54.90;;;;;;4968183;28;94776;-40
2022/04/06 00:49:51;;;;;;;70.90;48.97;;;15.50;54.90;;;;;;4977991;28;95046;-43
2022/04/06 00:52:18;;;;;;;72.93;49.38;;;15.50;55.00;;;;;;4979055;28;95497;-38
2022/04/06 00:54:44;;;;;;;69.85;48.85;;;15.50;55.00;;;;;;4968250;28;97145;-40
2022/04/06 00:57:10;;;;;;;71.85;49.05;;;15.50;55.00;;;;;;4975371;28;95214;-36
2022/04/06 00:59:36;;;;;;;71.30;49.35;;;15.50;54.90;;;;;;4980754;28;95332;-35
2022/04/06 01:02:02;;;;;;;72.15;49.35;;;15.40;54.90;;;;;;4978798;28;95505;-37
2022/04/06 01:04:28;;;;;;;72.75;49.25;;;15.50;55.60;;;;;;4975224;28;95977;-38
2022/04/06 01:06:53;;;;;;;73.13;49.45;;;15.50;55.00;;;;;;4975524;28;94944;-39
2022/04/06 01:09:20;;;;;;;72.40;49.28;;;15.40;55.00;;;;;;4975226;28;97037;-36
2022/04/06 01:11:48;;;;;;;73.53;49.40;;;15.50;55.00;;;;;;4978341;28;96703;-39
2022/04/06 01:14:15;;;;;;;72.03;49.35;;;15.40;54.90;;;;;;4983730;28;94647;-38
2022/04/06 01:16:41;;;;;;;73.50;49.65;;;15.50;55.00;;;;;;4973338;28;95024;-39
2022/04/06 01:19:07;;;;;;;71.32;49.45;;;15.50;55.00;;;;;;4973347;28;94686;-38
2022/04/06 01:21:33;;;;;;;71.15;49.17;;;15.50;55.00;;;;;;4986365;28;95032;-36
2022/04/06 01:23:59;;;;;;;72.30;49.60;;;15.50;55.00;;;;;;4994132;28;95351;-35
2022/04/06 01:26:25;;;;;;;71.90;49.00;;;15.50;55.00;;;;;;4991958;28;94329;-38
2022/04/06 01:28:51;;;;;;;72.50;49.42;;;15.50;55.00;;;;;;4994199;28;95040;-34
2022/04/06 01:31:17;;;;;;;71.85;48.92;;;15.40;54.90;;;;;;4987410;28;97385;-34
2022/04/06 01:33:43;;;;;;;71.15;49.20;;;15.50;54.90;;;;;;4990151;28;95555;-37
2022/04/06 01:36:09;;;;;;;72.47;49.33;;;15.50;54.90;;;;;;4995101;28;95052;-41
2022/04/06 01:38:35;;;;;;;71.90;49.25;;;15.40;54.90;;;;;;5002809;28;95903;-35
2022/04/06 01:41:02;;;;;;;72.05;49.22;;;15.50;54.90;;;;;;4997516;28;94947;-40
2022/04/06 01:43:28;;;;;;;72.13;49.38;;;15.50;55.00;;;;;;4992944;28;94974;-40
2022/04/06 01:45:54;;;;;;;71.03;49.00;;;15.50;54.90;;;;;;4998255;28;94739;-39
2022/04/06 01:48:20;;;;;;;71.05;49.22;;;15.40;54.90;;;;;;4992256;28;96307;-37
2022/04/06 01:53:31;;;;;;;71.53;48.95;;;15.40;54.90;;;;;;4987316;28;94870;-33
2022/04/06 01:55:57;;;;;;;71.38;49.17;;;15.50;54.90;;;;;;4996067;28;94790;-38
2022/04/06 01:58:23;;;;;;;72.50;49.65;;;15.40;54.90;;;;;;4989797;28;96494;-37
2022/04/06 02:00:50;;;;;;;72.40;49.17;;;15.40;54.90;;;;;;5000206;28;95824;-38
2022/04/06 02:03:16;;;;;;;70.50;49.05;;;15.40;54.90;;;;;;4991146;28;94926;-37
2022/04/06 02:05:42;;;;;;;70.30;48.90;;;15.40;54.90;;;;;;4990374;28;94753;-37
2022/04/06 02:08:08;;;;;;;72.97;49.25;;;15.40;55.50;;;;;;4996023;28;95262;-36
2022/04/06 02:10:34;;;;;;;72.38;49.45;;;15.40;54.90;;;;;;4992235;28;96419;-38
2022/04/06 02:13:00;;;;;;;73.88;49.47;;;15.50;54.90;;;;;;4996907;28;94675;-38
2022/04/06 02:15:30;;;;;;;71.55;48.92;;;15.40;54.90;;;;;;4995174;28;94687;-39
2022/04/06 02:17:56;;;;;;;72.38;49.15;;;15.40;54.90;;;;;;4992608;28;95750;-40
2022/04/06 02:20:22;;;;;;;70.78;49.22;;;15.40;54.90;;;;;;4987372;28;97956;-38
2022/04/06 02:22:48;;;;;;;70.68;49.10;;;15.40;54.90;;;;;;4996813;28;96820;-41
2022/04/06 02:25:14;;;;;;;72.35;49.30;;;15.40;54.90;;;;;;4998518;28;94914;-38
2022/04/06 02:27:51;;;;;;;70.63;48.95;;;15.40;54.90;;;;;;4988034;28;95080;-36
2022/04/06 02:30:18;;;;;;;72.13;49.20;;;15.40;54.90;;;;;;4992129;28;95647;-37
2022/04/06 02:32:45;;;;;;;70.40;48.97;;;15.40;54.90;;;;;;4995151;28;95090;-40
2022/04/06 02:35:12;;;;;;;71.75;49.17;;;15.40;54.90;;;;;;4995053;28;94654;-42
2022/04/06 02:37:41;;;;;;;73.20;49.05;;;15.40;54.90;;;;;;4995688;28;95167;-38
2022/04/06 02:40:08;;;;;;;71.75;48.85;;;15.40;55.00;;;;;;4997626;28;96723;-38
2022/04/06 02:42:33;;;;;;;71.93;48.95;;;15.40;55.00;;;;;;4988097;28;95155;-38
2022/04/06 02:44:59;;;;;;;72.82;49.38;;;15.40;54.90;;;;;;4988851;28;95301;-38
2022/04/06 02:47:25;;;;;;;70.35;49.05;;;15.40;54.90;;;;;;4995450;28;96409;-39
2022/04/06 02:49:50;;;;;;;72.18;49.42;;;15.40;55.00;;;;;;4991361;28;94968;-38
2022/04/06 02:52:17;;;;;;;69.85;48.78;;;15.40;54.90;;;;;;4994126;28;94999;-39
2022/04/06 02:54:43;;;;;;;70.82;48.97;;;15.40;55.00;;;;;;4990072;28;95034;-35
2022/04/06 02:57:08;;;;;;;72.00;49.05;;;15.40;55.00;;;;;;4992156;28;95218;-35
2022/04/06 02:59:34;;;;;;;72.20;48.97;;;15.40;54.90;;;;;;4990718;28;95189;-38
2022/04/06 03:02:00;;;;;;;72.13;49.40;;;15.40;55.00;;;;;;4996239;28;94521;-38
2022/04/06 03:04:25;;;;;;;70.70;49.05;;;15.40;55.00;;;;;;4994439;28;94457;-40
2022/04/06 03:06:51;;;;;;;71.68;49.22;;;15.40;54.90;;;;;;4993080;28;94816;-37
2022/04/06 03:09:16;;;;;;;70.78;49.25;;;15.40;55.00;;;;;;4993300;28;95380;-38
2022/04/06 03:11:42;;;;;;;70.95;49.20;;;15.40;55.00;;;;;;4986085;28;95902;-37
2022/04/06 03:14:08;;;;;;;72.03;49.17;;;15.40;55.00;;;;;;4996963;28;94818;-35
2022/04/06 03:16:34;;;;;;;71.15;49.15;;;15.40;55.00;;;;;;4991322;28;95039;-38
2022/04/06 03:18:59;;;;;;;70.47;48.83;;;15.40;55.00;;;;;;4996081;28;94581;-36
2022/04/06 03:21:25;;;;;;;71.28;49.17;;;15.40;54.90;;;;;;4992549;28;96367;-38
2022/04/06 03:23:50;;;;;;;71.22;49.05;;;15.40;55.00;;;;;;4995866;28;95167;-41
2022/04/06 03:26:16;;;;;;;70.60;48.88;;;15.40;55.00;;;;;;4996195;28;95201;-38
2022/04/06 03:28:42;;;;;;;70.95;49.05;;;15.40;55.00;;;;;;4987996;28;95205;-37
2022/04/06 03:31:07;;;;;;;71.97;49.15;;;15.40;55.60;;;;;;4994637;28;94949;-40
2022/04/06 03:33:34;;;;;;;70.40;49.25;;;15.40;55.00;;;;;;4992807;28;95024;-41
2022/04/06 03:35:59;;;;;;;71.00;49.15;;;15.40;55.00;;;;;;4989055;28;96336;-40
2022/04/06 03:38:25;;;;;;;70.18;48.83;;;15.40;55.00;;;;;;4996253;28;95059;-38
2022/04/06 03:40:51;;;;;;;70.40;48.75;;;15.40;55.00;;;;;;4995752;28;94989;-38
2022/04/06 03:43:16;;;;;;;70.78;48.95;;;15.40;55.00;;;;;;4989853;28;94608;-39
2022/04/06 03:45:42;;;;;;;70.40;48.97;;;15.40;55.00;;;;;;4993604;28;95822;-38
2022/04/06 03:48:09;;;;;;;70.88;48.92;;;15.40;55.00;;;;;;4988141;28;98136;-40
2022/04/06 03:50:34;;;;;;;70.63;48.80;;;15.30;54.90;;;;;;4994876;28;95215;-40
2022/04/06 03:53:00;;;;;;;71.78;48.75;;;15.30;55.00;;;;;;4988931;28;94433;-36
2022/04/06 03:55:26;;;;;;;71.03;49.10;;;15.40;55.00;;;;;;4991469;28;95728;-37
2022/04/06 03:57:51;;;;;;;70.05;48.95;;;15.30;54.90;;;;;;4998264;28;97257;-36
2022/04/06 04:00:17;;;;;;;71.28;48.92;;;15.30;55.00;;;;;;4997382;28;95928;-39
2022/04/06 04:02:43;;;;;;;71.38;48.90;;;15.40;55.00;;;;;;4991637;28;95051;-41
2022/04/06 04:05:09;;;;;;;73.32;49.25;;;15.30;55.00;;;;;;4993596;28;95180;-36
2022/04/06 04:07:37;;;;;;;70.18;49.05;;;15.30;55.00;;;;;;4995628;28;94956;-41
2022/04/06 04:10:12;;;;;;;70.55;48.60;;;15.30;55.00;;;;;;4993657;28;96553;-39
2022/04/06 04:12:41;;;;;;;71.90;48.97;;;15.30;55.00;;;;;;4994481;28;94985;-39
2022/04/06 04:15:07;;;;;;;71.15;49.22;;;15.30;55.00;;;;;;4997143;28;94776;-48
2022/04/06 04:17:33;;;;;;;69.88;49.03;;;15.30;55.00;;;;;;4992791;28;95923;-47
2022/04/06 04:19:58;;;;;;;70.65;48.95;;;15.40;55.00;;;;;;4993071;28;95207;-41
2022/04/06 04:22:24;;;;;;;70.90;48.88;;;15.30;54.90;;;;;;4987680;28;94995;-36
2022/04/06 04:24:50;;;;;;;69.60;48.95;;;15.40;55.00;;;;;;4995501;28;97857;-37
2022/04/06 04:27:15;;;;;;;69.95;48.90;;;15.30;54.90;;;;;;4993141;28;94956;-37
2022/04/06 04:29:42;;;;;;;70.60;49.05;;;15.30;54.90;;;;;;4993184;28;94798;-36
2022/04/06 04:32:10;;;;;;;69.57;48.88;;;15.30;54.90;;;;;;4999758;28;95036;-35
2022/04/06 04:34:36;;;;;;;69.45;48.67;;;15.30;54.90;;;;;;4999597;28;95255;-38
2022/04/06 04:37:02;;;;;;;70.00;48.78;;;15.40;54.90;;;;;;5001933;28;95133;-37
2022/04/06 04:39:27;;;;;;;70.68;49.13;;;15.30;54.90;;;;;;4996389;28;95489;-38
2022/04/06 04:41:53;;;;;;;71.10;49.17;;;15.30;54.90;;;;;;4994369;28;96193;-39
2022/04/06 04:44:19;;;;;;;72.18;49.10;;;15.30;54.90;;;;;;4995629;28;95300;-40
2022/04/06 04:46:45;;;;;;;71.78;49.17;;;15.30;54.90;;;;;;4993311;28;98518;-37
2022/04/06 04:49:10;;;;;;;70.70;49.17;;;15.30;54.90;;;;;;5001366;28;95889;-37
2022/04/06 04:51:36;;;;;;;70.70;48.90;;;15.30;54.90;;;;;;5000007;28;94656;-41
2022/04/06 04:54:02;;;;;;;70.55;48.95;;;15.30;54.90;;;;;;4998328;28;95109;-38
2022/04/06 04:56:30;;;;;;;69.65;48.65;;;15.30;55.00;;;;;;4992787;28;95027;-39
2022/04/06 04:58:56;;;;;;;70.63;48.88;;;15.30;55.00;;;;;;4997312;28;95933;-35
2022/04/06 05:01:22;;;;;;;69.72;48.75;;;15.30;55.00;;;;;;4991170;28;95152;-39
2022/04/06 05:03:48;;;;;;;70.20;48.85;;;15.30;55.00;;;;;;4994928;28;96217;-38
2022/04/06 05:06:14;;;;;;;69.82;48.63;;;15.30;55.00;;;;;;4997137;28;96244;-39
2022/04/06 05:08:40;;;;;;;70.13;48.85;;;15.30;55.50;;;;;;4988621;28;95143;-36
2022/04/06 05:11:05;;;;;;;70.25;48.75;;;15.30;54.90;;;;;;4989615;28;95079;-41
2022/04/06 05:13:31;;;;;;;70.25;48.83;;;15.30;54.90;;;;;;4999565;28;96261;-36
2022/04/06 05:15:57;;;;;;;71.90;49.08;;;15.30;54.90;;;;;;4992812;28;95797;-35
2022/04/06 05:18:23;;;;;;;70.60;48.67;;;15.30;54.90;;;;;;4995184;28;94982;-43
2022/04/06 05:20:49;;;;;;;70.22;49.05;;;15.30;54.90;;;;;;4995905;28;94945;-38
2022/04/06 05:23:15;;;;;;;69.95;48.65;;;15.30;54.90;;;;;;4995428;28;96137;-39
2022/04/06 05:25:41;;;;;;;71.35;48.83;;;15.30;54.90;;;;;;4994113;28;94879;-35
2022/04/06 05:28:08;;;;;;;69.57;48.80;;;15.30;54.90;;;;;;4998498;28;94900;-38
2022/04/06 05:30:34;;;;;;;71.30;49.03;;;15.30;54.90;;;;;;4998098;28;94375;-38
2022/04/06 05:33:00;;;;;;;69.95;48.70;;;15.30;54.80;;;;;;4993332;28;95200;-36
2022/04/06 05:35:26;;;;;;;69.30;48.67;;;15.30;54.80;;;;;;4989608;28;95030;-39
2022/04/06 05:37:55;;;;;;;69.65;48.75;;;15.30;54.80;;;;;;4999170;28;96383;-37
2022/04/06 05:40:21;;;;;;;69.47;48.78;;;15.30;54.80;;;;;;4998005;28;95369;-41
2022/04/06 05:42:47;;;;;;;69.78;48.80;;;15.30;54.80;;;;;;4990642;28;96278;-39
2022/04/06 05:45:13;;;;;;;70.22;48.67;;;15.30;54.80;;;;;;4991557;28;95109;-41
2022/04/06 05:47:39;;;;;;;70.05;48.90;;;15.30;54.80;;;;;;4992283;28;95172;-37
2022/04/06 05:50:07;;;;;;;69.68;48.72;;;15.30;54.80;;;;;;4996652;28;94634;-39
2022/04/06 05:52:33;;;;;;;70.68;48.92;;;15.30;54.80;;;;;;5000648;28;95108;-37
2022/04/06 05:54:59;;;;;;;70.68;49.08;;;15.30;54.80;;;;;;4994907;28;94937;-40
2022/04/06 05:57:24;;;;;;;71.03;48.85;;;15.30;54.80;;;;;;4997841;28;94252;-38
2022/04/06 05:59:50;;;;;;;70.10;48.75;;;15.30;54.80;;;;;;4993722;28;95431;-40
2022/04/06 06:02:16;;;;;;;69.90;48.88;;;15.30;54.80;;;;;;4993318;28;96025;-39
2022/04/06 06:04:42;;;;;;;70.25;48.92;;;15.30;54.80;;;;;;4999948;28;95728;-36
2022/04/06 06:07:08;;;;;;;70.75;48.83;;;15.30;54.80;;;;;;4992884;28;94968;-38
2022/04/06 06:09:35;;;;;;;69.80;48.80;;;15.30;54.90;;;;;;4992159;28;94899;-35
2022/04/06 06:12:02;;;;;;;70.88;48.95;;;15.30;54.90;;;;;;4993282;28;94778;-37
2022/04/06 06:14:28;;;;;;;70.07;48.85;;;15.30;54.80;;;;;;4989120;28;96800;-43
2022/04/06 06:16:53;;;;;;;69.90;48.67;;;15.30;54.80;;;;;;4994870;28;94854;-42
2022/04/06 06:19:19;;;;;;;69.15;48.55;;;15.30;54.80;;;;;;4998035;28;94235;-38
2022/04/06 06:21:45;;;;;;;71.72;48.95;;;15.30;54.80;;;;;;4990560;28;98053;-38
2022/04/06 06:24:11;;;;;;;70.80;49.05;;;15.30;54.80;;;;;;4991688;28;95078;-36
2022/04/06 06:26:37;;;;;;;70.00;48.75;;;15.30;54.80;;;;;;4988865;28;96704;-38
2022/04/06 06:29:04;;;;;;;69.68;48.75;;;15.40;54.80;;;;;;4997047;28;94588;-36
2022/04/06 06:31:31;;;;;;;70.15;49.03;;;15.30;54.70;;;;;;4995224;28;94939;-38
2022/04/06 06:33:57;;;;;;;69.75;48.78;;;15.40;54.80;;;;;;4994766;27;95145;-38
2022/04/06 06:36:23;;;;;;;69.63;48.90;;;15.40;54.80;;;;;;4994591;28;94917;-40
2022/04/06 06:38:51;;;;;;;69.85;48.78;;;15.40;54.80;;;;;;4994450;28;94941;-39
2022/04/06 06:41:17;;;;;;;70.22;49.08;;;15.40;54.70;;;;;;4985738;28;96877;-37
2022/04/06 06:43:44;;;;;;;71.13;48.88;;;15.40;54.70;;;;;;4998254;28;95427;-39
2022/04/06 06:46:11;;;;;;;69.63;48.72;;;15.40;54.70;;;;;;4998297;28;95240;-39
2022/04/06 06:48:37;;;;;;;70.60;48.95;;;15.40;54.70;;;;;;4996723;28;95104;-42
2022/04/06 06:51:03;;;;;;;71.38;48.92;;;15.40;54.70;;;;;;4986455;28;96073;-38
2022/04/06 06:53:28;;;;;;;70.18;48.80;;;15.40;54.70;;;;;;4991454;28;95912;-41
2022/04/06 06:55:54;;;;;;;70.80;49.05;;;15.40;54.70;;;;;;4996718;28;95110;-40
2022/04/06 06:58:20;;;;;;;71.35;48.85;;;15.40;54.70;;;;;;4993554;28;95071;-35
2022/04/06 07:00:45;;;;;;;70.13;48.92;;;15.40;54.70;;;;;;4995626;28;95174;-38
2022/04/06 07:03:11;;;;;;;70.32;48.95;;;15.40;54.60;;;;;;4992137;28;96515;-50
2022/04/06 07:05:36;;;;;;;71.18;49.10;;;15.40;54.70;;;;;;4993413;28;96646;-38
2022/04/06 07:08:02;;;;;;;70.00;49.00;;;15.40;54.60;;;;;;4995088;28;93830;-36
2022/04/06 07:10:29;;;;;;;70.68;49.15;;;15.50;54.60;;;;;;4992398;28;96519;-35
2022/04/06 07:12:55;;;;;;;70.25;48.75;;;15.50;54.60;;;;;;4993213;28;95299;-38
2022/04/06 07:15:22;;;;;;;69.47;48.80;;;15.50;54.60;;;;;;4995103;28;95701;-38
2022/04/06 07:17:55;;;;;;;70.85;49.13;;;15.50;54.50;;;;;;4996754;28;95039;-37
2022/04/06 07:20:26;;;;;;;71.18;48.92;;;15.50;54.50;;;;;;4988851;28;95343;-39
2022/04/06 07:22:52;;;;;;;71.75;49.20;;;15.50;54.40;;;;;;4993281;28;94963;-38
2022/04/06 07:25:19;;;;;;;71.05;49.20;;;15.60;54.40;;;;;;4991129;28;95260;-37
2022/04/06 07:27:44;;;;;;;71.85;49.40;;;15.60;54.30;;;;;;4987885;28;94761;-37
2022/04/06 07:30:12;;;;;;;71.35;49.17;;;15.60;54.20;;;;;;4998435;28;95564;-38
2022/04/06 07:32:37;;;;;;;71.95;49.38;;;15.60;54.20;;;;;;5003469;28;94953;-40
2022/04/06 07:35:05;;;;;;;72.25;49.40;;;15.60;54.10;;;;;;5003442;28;95819;-49
2022/04/06 07:37:38;;;;;;;72.28;49.45;;;15.60;54.10;;;;;;4993543;28;94867;-38
2022/04/06 07:40:05;;;;;;;72.00;49.22;;;15.70;54.10;;;;;;4989078;28;96799;-36
2022/04/06 07:42:30;;;;;;;72.03;49.42;;;15.70;54.10;;;;;;4994360;28;95810;-38
2022/04/06 07:44:56;;;;;;;72.63;49.50;;;15.70;54.20;;;;;;4989441;28;95459;-38
2022/04/06 07:47:30;;;;;;;71.22;49.33;;;15.70;54.30;;;;;;4991121;28;96043;-39
2022/04/06 07:49:57;;;;;;;71.22;49.10;;;15.60;54.20;;;;;;4990589;28;95227;-36
2022/04/06 07:52:24;;;;;;;73.85;49.53;;;15.70;54.20;;;;;;4995751;27;95545;-37
2022/04/06 07:54:49;;;;;;;71.82;49.42;;;15.70;54.20;;;;;;4989984;28;96539;-40
2022/04/06 07:57:15;;;;;;;71.50;49.25;;;15.70;54.10;;;;;;4988111;28;95523;-38
2022/04/06 07:59:40;;;;;;;72.82;49.38;;;15.70;54.10;;;;;;4992794;28;95123;-39
2022/04/06 08:02:06;;;;;;;72.22;49.55;;;15.70;54.10;;;;;;4995391;28;95366;-39
2022/04/06 08:04:32;;;;;;;72.90;49.35;;;15.70;54.10;;;;;;4993951;28;95627;-41
2022/04/06 08:06:57;;;;;;;71.85;49.50;;;15.70;54.20;;;;;;4988816;27;95084;-36
2022/04/06 08:09:23;;;;;;;72.57;49.75;;;15.70;54.20;;;;;;4990269;28;94799;-41
2022/04/06 08:11:50;;;;;;;71.50;49.05;;;15.70;54.30;;;;;;4989461;28;95111;-38
2022/04/06 08:14:15;;;;;;;72.78;49.47;;;15.70;54.20;;;;;;4994679;28;95067;-35
2022/04/06 08:16:41;;;;;;;72.10;49.60;;;15.70;54.20;;;;;;4995136;28;95006;-41
2022/04/06 08:19:07;;;;;;;71.90;49.45;;;15.80;54.10;;;;;;4995666;28;95887;-39
2022/04/06 08:21:32;;;;;;;72.28;49.85;;;15.80;54.10;;;;;;4996724;28;95440;-36
2022/04/06 08:23:58;;;;;;;72.63;49.55;;;15.80;54.00;;;;;;4990828;28;95221;-41
2022/04/06 08:26:24;;;;;;;73.13;49.85;;;15.80;54.00;;;;;;4996196;28;94889;-40
2022/04/06 08:28:49;;;;;;;72.80;49.40;;;15.80;54.00;;;;;;4995528;28;96084;-41
2022/04/06 08:31:15;;;;;;;72.88;49.75;;;15.90;53.90;;;;;;4993694;28;96302;-38
2022/04/06 08:33:41;;;;;;;73.35;49.75;;;15.90;53.90;;;;;;4994550;28;95019;-40
2022/04/06 08:36:09;;;;;;;73.53;49.72;;;15.90;53.80;;;;;;4993912;28;94996;-41
2022/04/06 08:38:36;;;;;;;73.40;49.67;;;16.00;53.70;;;;;;4991023;28;94915;-38
2022/04/06 08:41:01;;;;;;;73.43;49.90;;;16.00;53.70;;;;;;4982815;28;95474;-40
2022/04/06 08:43:27;;;;;;;73.82;49.75;;;16.00;53.70;;;;;;4995211;28;94960;-37
2022/04/06 08:45:54;;;;;;;73.28;49.83;;;16.00;53.70;;;;;;4994435;28;94461;-38
2022/04/06 08:48:21;;;;;;;73.70;49.83;;;16.00;53.70;;;;;;4985991;28;94955;-41
2022/04/06 08:50:49;;;;;;;73.28;50.00;;;16.00;53.80;;;;;;4994978;28;95533;-37
2022/04/06 08:53:15;;;;;;;73.38;49.85;;;16.00;53.70;;;;;;4992089;28;95858;-38
2022/04/06 08:55:41;;;;;;;74.13;50.05;;;16.00;53.70;;;;;;4992724;28;94634;-37
2022/04/06 08:58:07;;;;;;;76.38;50.05;;;16.10;53.70;;;;;;4992875;28;96034;-41
2022/04/06 09:00:33;;;;;;;75.15;50.17;;;16.10;53.70;;;;;;4986100;28;95474;-39
2022/04/06 09:02:59;;;;;;;73.07;49.85;;;16.10;53.60;;;;;;4994270;28;95136;-41
2022/04/06 09:05:28;;;;;;;73.60;49.83;;;16.10;53.70;;;;;;4996546;28;95057;-40
2022/04/06 09:07:54;;;;;;;74.45;49.85;;;16.10;53.60;;;;;;4993958;28;94874;-35
2022/04/06 09:10:37;;;;;;;72.68;49.67;;;16.10;53.70;;;;;;4995607;28;95644;-38
2022/04/06 09:13:20;;;;;;;73.35;49.67;;;16.00;53.70;;;;;;4991851;28;96998;-39
2022/04/06 09:15:50;;;;;;;74.78;49.83;;;16.00;53.70;;;;;;4999202;28;95238;-39
2022/04/06 09:18:15;;;;;;;74.75;49.80;;;16.00;53.70;;;;;;4994455;28;96591;-43
2022/04/06 09:20:41;;;;;;;72.95;49.90;;;16.10;53.70;;;;;;5000904;28;95797;-35
2022/04/06 09:23:08;;;;;;;73.78;49.95;;;16.00;53.70;;;;;;4991887;28;94844;-39
2022/04/06 09:25:35;;;;;;;72.57;49.75;;;16.00;53.80;;;;;;4995586;28;95098;-37
2022/04/06 09:28:12;;;;;;;74.10;49.70;;;16.00;53.70;;;;;;4989882;28;95257;-37
2022/04/06 09:30:46;;;;;;;72.55;49.50;;;16.10;53.80;;;;;;5001254;28;95433;-40
2022/04/06 09:33:13;;;;;;;73.28;49.70;;;16.00;53.70;;;;;;4995670;28;94992;-36
2022/04/06 09:35:39;;;;;;;72.93;49.53;;;16.00;53.90;;;;;;4997615;28;94518;-36
2022/04/06 09:38:09;;;;;;;72.35;49.53;;;16.00;53.90;;;;;;4993235;28;95685;-41
2022/04/06 09:40:37;;;;;;;72.47;49.58;;;16.00;53.80;;;;;;5005761;27;95578;-39
2022/04/06 09:43:03;;;;;;;73.15;49.45;;;16.00;53.80;;;;;;4990350;28;96102;-38
2022/04/06 09:48:14;;;;;;;72.53;49.55;;;16.00;53.80;;;;;;4989495;28;94670;-42
2022/04/06 09:50:42;;;;;;;71.40;49.30;;;16.00;53.90;;;;;;4994393;28;95283;-39
2022/04/06 09:53:09;;;;;;;73.07;49.45;;;16.00;53.80;;;;;;4995571;28;95238;-36
2022/04/06 09:55:35;;;;;;;72.57;49.65;;;16.00;53.90;;;;;;4990425;28;94907;-35
2022/04/06 09:58:04;;;;;;;72.60;49.55;;;16.00;53.80;;;;;;4986632;28;96179;-37
2022/04/06 10:00:30;;;;;;;73.78;49.70;;;16.10;53.90;;;;;;4988986;28;93894;-40
2022/04/06 10:03:08;;;;;;;72.00;49.47;;;16.10;53.80;;;;;;4998198;28;95019;-40
2022/04/06 10:05:35;;;;;;;72.53;49.67;;;16.10;53.70;;;;;;4995447;28;94807;-38
2022/04/06 10:08:09;;;;;;;72.90;49.55;;;16.10;53.80;;;;;;4988582;28;97458;-40
2022/04/06 10:10:40;;;;;;;73.03;49.85;;;16.10;53.70;;;;;;4994309;28;94997;-35
2022/04/06 10:13:10;;;;;;;72.60;49.63;;;16.10;53.80;;;;;;4988345;28;94625;-35
2022/04/06 10:15:37;;;;;;;73.40;49.65;;;16.10;53.90;;;;;;4992859;28;94981;-38
2022/04/06 10:18:06;;;;;;;72.97;49.85;;;16.10;53.90;;;;;;5002899;28;95731;-35
2022/04/06 10:20:56;;;;;;;76.30;49.78;;;16.10;53.90;;;;;;4991151;28;98039;-39
2022/04/06 10:23:30;;;;;;;73.18;49.75;;;16.10;53.90;;;;;;4992943;28;95160;-40
2022/04/06 10:26:17;;;;;;;72.22;49.30;;;16.10;54.50;;;;;;4997653;28;94246;-40
2022/04/06 10:28:44;;;;;;;72.18;49.50;;;16.10;53.90;;;;;;4988853;28;95676;-41
2022/04/06 10:31:22;;;;;;;73.40;49.60;;;16.10;53.90;;;;;;4993806;28;97781;-40
2022/04/06 10:33:49;;;;;;;73.45;49.50;;;16.10;53.90;;;;;;4995100;28;96704;-39
2022/04/06 10:36:20;;;;;;;73.03;49.75;;;16.10;54.00;;;;;;4998095;28;94932;-37
2022/04/06 10:39:04;;;;;;;72.57;49.58;;;16.10;54.00;;;;;;4992676;28;94665;-39
2022/04/06 10:41:30;;;;;;;72.57;49.65;;;16.10;54.00;;;;;;4989756;28;95280;-40
2022/04/06 10:43:56;;;;;;;72.68;49.65;;;16.10;53.80;;;;;;4999125;28;94977;-40
2022/04/06 10:46:51;;;;;;;72.75;49.85;;;16.10;53.80;;;;;;4993384;28;94634;-36
2022/04/06 10:49:16;;;;;;;72.45;49.47;;;16.10;53.80;;;;;;4982848;27;95779;-36
2022/04/06 10:51:48;;;;;;;73.00;49.75;;;16.10;53.90;;;;;;4989627;28;93971;-37
2022/04/06 10:54:14;;;;;;;73.68;49.63;;;16.10;53.90;;;;;;5000567;28;94924;-41
2022/04/06 10:56:48;;;;;;;73.50;50.03;;;16.10;53.90;;;;;;4991615;28;97256;-36
2022/04/06 10:59:20;;;;;;;72.55;49.75;;;16.10;53.90;;;;;;5000199;28;96219;-36
2022/04/06 11:01:48;;;;;;;73.00;49.75;;;16.10;53.90;;;;;;4991593;28;96127;-37
2022/04/06 11:04:21;;;;;;;73.25;49.78;;;16.10;53.90;;;;;;4989871;28;94745;-35
2022/04/06 11:06:48;;;;;;;72.68;49.72;;;16.10;54.00;;;;;;4992701;28;94772;-41
2022/04/06 11:12:21;;;;;;;71.80;49.45;;;16.10;54.00;;;;;;4989991;28;95274;-37
2022/04/06 11:15:07;;;;;;;71.93;49.45;;;16.10;53.90;;;;;;4996638;28;98058;-39
2022/04/06 11:17:36;;;;;;;71.30;49.25;;;16.10;54.00;;;;;;4988940;28;94738;-38
2022/04/06 11:20:30;;;;;;;72.05;49.58;;;16.10;54.00;;;;;;4990740;28;95051;-39
2022/04/06 11:22:57;;;;;;;71.97;49.30;;;16.10;54.60;;;;;;4998499;28;94983;-39
2022/04/06 11:25:28;;;;;;;72.50;49.45;;;16.10;54.00;;;;;;4994386;28;95615;-39
2022/04/06 11:28:04;;;;;;;72.47;49.53;;;16.10;54.00;;;;;;4994981;28;95012;-41
2022/04/06 11:30:32;;;;;;;73.03;49.53;;;16.10;54.00;;;;;;4994501;28;95027;-39
2022/04/06 11:32:59;;;;;;;71.63;49.25;;;16.10;54.00;;;;;;4997665;28;94920;-36
2022/04/06 11:35:36;;;;;;;73.70;49.83;;;16.10;54.00;;;;;;4997711;28;95020;-39
2022/04/06 11:38:07;;;;;;;72.03;49.53;;;16.10;54.00;;;;;;4997049;28;95009;-40
2022/04/06 11:40:34;;;;;;;73.00;49.47;;;16.10;53.90;;;;;;4994062;28;94836;-39
2022/04/06 11:43:04;;;;;;;74.00;49.70;;;16.10;53.90;;;;;;4996647;28;96027;-38
2022/04/06 11:45:40;;;;;;;72.82;49.88;;;16.20;53.90;;;;;;4996106;28;95122;-40
2022/04/06 11:48:14;;;;;;;73.03;49.85;;;16.20;53.80;;;;;;4989074;28;97684;-37
2022/04/06 11:50:41;;;;;;;73.53;49.95;;;16.20;53.80;;;;;;4990269;28;96687;-37
2022/04/06 11:53:17;;;;;;;73.00;49.83;;;16.20;53.80;;;;;;4995265;28;94947;-40
2022/04/06 11:55:48;;;;;;;73.60;49.92;;;16.20;53.80;;;;;;4985652;28;94930;-40
2022/04/06 11:58:30;;;;;;;72.75;49.75;;;16.20;53.80;;;;;;4993839;28;94995;-43
2022/04/06 12:01:06;;;;;;;73.10;49.80;;;16.30;53.70;;;;;;4990678;28;95018;-39
2022/04/06 12:03:37;;;;;;;73.53;50.15;;;16.30;53.70;;;;;;4991704;28;94970;-36
2022/04/06 12:06:04;;;;;;;73.97;50.25;;;16.30;53.70;;;;;;4991101;28;95723;-38
2022/04/06 12:08:34;;;;;;;75.00;49.92;;;16.30;53.70;;;;;;4994453;28;94486;-36
2022/04/06 12:11:00;;;;;;;73.88;50.00;;;16.30;53.60;;;;;;4993913;28;95485;-41
2022/04/06 12:13:28;;;;;;;74.15;50.28;;;16.40;53.60;;;;;;4999766;28;95218;-39
2022/04/06 12:15:55;;;;;;;74.22;50.38;;;16.40;53.60;;;;;;4991131;28;95953;-40
2022/04/06 12:18:22;;;;;;;75.03;50.28;;;16.40;53.40;;;;;;4994552;28;94907;-38
2022/04/06 12:20:48;;;;;;;74.70;50.55;;;16.40;53.40;;;;;;4991322;28;95149;-38
2022/04/06 12:23:15;;;;;;;74.95;50.05;;;16.40;53.50;;;;;;4998747;28;95118;-40
2022/04/06 12:25:41;;;;;;;74.90;50.55;;;16.40;53.50;;;;;;4997986;28;95031;-37
2022/04/06 12:28:18;;;;;;;74.35;50.17;;;16.40;53.40;;;;;;4996555;28;94479;-39
2022/04/06 12:31:00;;;;;;;73.97;50.05;;;16.50;53.40;;;;;;4986433;28;95429;-39
2022/04/06 12:33:38;;;;;;;74.70;50.35;;;16.50;53.40;;;;;;4989036;28;95500;-35
2022/04/06 12:36:14;;;;;;;76.00;50.45;;;16.50;53.40;;;;;;4991842;28;96125;-41
2022/04/06 12:38:42;;;;;;;75.28;50.40;;;16.60;53.30;;;;;;4985228;28;95029;-38
2022/04/06 12:41:13;;;;;;;74.97;50.33;;;16.60;53.30;;;;;;4987314;28;95704;-40